createdAt,value
2017-07-11T00:01:54.052Z,15.60
2017-07-11T00:04:22.947Z,13.60
2017-07-11T00:06:51.842Z,9.63
2017-07-11T00:09:20.735Z,8.27
2017-07-11T00:11:49.634Z,14.25
2017-07-11T00:14:18.522Z,9.63
2017-07-11T00:16:47.399Z,9.05
2017-07-11T00:19:16.294Z,11.95
2017-07-11T00:21:45.177Z,8.88
2017-07-11T00:24:14.078Z,10.45
2017-07-11T00:26:42.982Z,14.77
2017-07-11T00:29:11.841Z,11.20
2017-07-11T00:31:40.696Z,11.50
2017-07-11T00:34:10.330Z,11.27
2017-07-11T00:36:39.326Z,14.68
2017-07-11T00:39:08.207Z,17.52
2017-07-11T00:41:37.092Z,10.68
2017-07-11T00:44:05.980Z,12.77
2017-07-11T00:46:34.903Z,12.27
2017-07-11T00:49:03.791Z,9.90
2017-07-11T00:51:32.669Z,9.25
2017-07-11T00:54:01.588Z,14.57
2017-07-11T00:56:30.473Z,11.27
2017-07-11T00:58:59.370Z,16.10
2017-07-11T01:01:28.252Z,15.40
2017-07-11T01:03:57.105Z,18.10
2017-07-11T01:06:26.018Z,14.50
2017-07-11T01:08:54.917Z,10.88
2017-07-11T01:11:23.809Z,11.40
2017-07-11T01:13:52.721Z,17.02
2017-07-11T01:16:21.620Z,15.90
2017-07-11T01:18:50.509Z,16.08
2017-07-11T01:21:19.523Z,13.82
2017-07-11T01:23:48.437Z,16.23
2017-07-11T01:26:18.070Z,13.80
2017-07-11T01:28:46.971Z,15.43
2017-07-11T01:31:15.864Z,13.65
2017-07-11T01:33:44.754Z,15.13
2017-07-11T01:36:12.964Z,15.90
2017-07-11T01:38:41.879Z,16.25
2017-07-11T01:41:11.548Z,15.82
2017-07-11T01:43:40.444Z,14.35
2017-07-11T01:46:09.342Z,12.37
2017-07-11T01:48:38.230Z,15.30
2017-07-11T01:51:07.142Z,12.65
2017-07-11T01:53:35.688Z,11.48
2017-07-11T01:56:04.584Z,13.62
2017-07-11T01:58:33.487Z,15.10
2017-07-11T02:01:01.702Z,13.62
2017-07-11T02:03:30.601Z,13.75
2017-07-11T02:05:59.506Z,13.13
2017-07-11T02:08:28.414Z,15.98
2017-07-11T02:10:57.308Z,16.30
2017-07-11T02:13:26.206Z,16.10
2017-07-11T02:15:55.064Z,11.73
2017-07-11T02:18:23.923Z,16.87
2017-07-11T02:20:52.809Z,12.95
2017-07-11T02:23:21.704Z,15.82
2017-07-11T02:25:50.597Z,12.40
2017-07-11T02:28:19.488Z,16.30
2017-07-11T02:30:48.393Z,18.10
2017-07-11T02:33:17.285Z,12.25
2017-07-11T02:35:46.176Z,13.88
2017-07-11T02:38:15.050Z,14.82
2017-07-11T02:40:43.949Z,16.30
2017-07-11T02:43:12.844Z,15.10
2017-07-11T02:45:41.222Z,14.93
2017-07-11T02:48:10.124Z,13.05
2017-07-11T02:50:39.015Z,12.65
2017-07-11T02:53:07.904Z,13.48
2017-07-11T02:55:36.796Z,14.68
2017-07-11T02:58:05.663Z,12.70
2017-07-11T03:00:34.574Z,12.57
2017-07-11T03:03:03.473Z,13.18
2017-07-11T03:05:32.369Z,12.68
2017-07-11T03:08:01.257Z,12.90
2017-07-11T03:10:30.159Z,15.18
2017-07-11T03:12:59.045Z,19.90
2017-07-11T03:15:27.949Z,15.30
2017-07-11T03:17:58.437Z,16.20
2017-07-11T03:20:27.344Z,12.98
2017-07-11T03:22:56.231Z,20.15
2017-07-11T03:25:25.137Z,12.88
2017-07-11T03:27:54.021Z,17.98
2017-07-11T03:30:22.928Z,14.15
2017-07-11T03:32:52.565Z,14.90
2017-07-11T03:35:21.473Z,13.85
2017-07-11T03:37:50.374Z,12.82
2017-07-11T03:40:19.278Z,19.75
2017-07-11T03:42:48.187Z,16.62
2017-07-11T03:45:17.075Z,13.05
2017-07-11T03:47:45.978Z,14.02
2017-07-11T03:50:15.611Z,14.38
2017-07-11T03:52:44.521Z,17.37
2017-07-11T03:55:13.388Z,18.17
2017-07-11T03:57:42.290Z,16.58
2017-07-11T04:00:11.189Z,13.23
2017-07-11T04:02:40.096Z,13.77
2017-07-11T04:05:08.994Z,12.10
2017-07-11T04:07:37.892Z,15.05
2017-07-11T04:10:06.780Z,15.18
2017-07-11T04:12:35.682Z,13.20
2017-07-11T04:15:04.584Z,17.15
2017-07-11T04:17:33.489Z,13.40
2017-07-11T04:20:02.487Z,12.52
2017-07-11T04:22:31.375Z,15.88
2017-07-11T04:25:00.259Z,13.35
2017-07-11T04:27:29.156Z,14.80
2017-07-11T04:29:58.067Z,13.62
2017-07-11T04:32:27.731Z,12.10
2017-07-11T04:34:56.613Z,23.17
2017-07-11T04:37:25.497Z,19.52
2017-07-11T04:39:54.405Z,16.35
2017-07-11T04:42:23.304Z,17.45
2017-07-11T04:44:52.210Z,16.12
2017-07-11T04:47:21.122Z,16.60
2017-07-11T04:49:50.021Z,15.10
2017-07-11T04:52:18.873Z,19.98
2017-07-11T04:54:47.782Z,18.67
2017-07-11T04:57:16.673Z,19.40
2017-07-11T04:59:45.569Z,18.70
2017-07-11T05:02:14.469Z,23.17
2017-07-11T05:04:43.351Z,21.60
2017-07-11T05:07:12.209Z,18.33
2017-07-11T05:09:41.109Z,16.08
2017-07-11T05:12:10.014Z,15.75
2017-07-11T05:14:38.901Z,22.45
2017-07-11T05:17:07.810Z,14.55
2017-07-11T05:19:36.671Z,19.98
2017-07-11T05:22:05.542Z,17.80
2017-07-11T05:24:34.498Z,16.02
2017-07-11T05:27:04.382Z,16.73
2017-07-11T05:29:33.284Z,16.20
2017-07-11T05:32:02.193Z,15.63
2017-07-11T05:34:31.101Z,13.20
2017-07-11T05:36:59.972Z,17.90
2017-07-11T05:39:29.670Z,18.50
2017-07-11T05:52:37.748Z,17.95
2017-07-11T05:55:06.659Z,22.85
2017-07-11T05:57:35.571Z,15.52
2017-07-11T06:00:04.452Z,13.90
2017-07-11T06:02:34.146Z,16.10
2017-07-11T06:05:03.052Z,12.82
2017-07-11T06:07:57.076Z,14.48
2017-07-11T06:10:25.981Z,13.73
2017-07-11T06:12:55.374Z,20.98
2017-07-11T06:15:24.280Z,14.95
2017-07-11T06:17:53.188Z,24.95
2017-07-11T06:20:22.100Z,16.58
2017-07-11T06:22:51.025Z,22.20
2017-07-11T06:25:20.234Z,25.85
2017-07-11T06:27:49.141Z,19.50
2017-07-11T06:30:18.033Z,22.95
2017-07-11T06:32:46.963Z,22.17
2017-07-11T06:35:15.891Z,22.35
2017-07-11T06:37:45.559Z,20.62
2017-07-11T06:40:14.467Z,24.23
2017-07-11T06:42:44.160Z,18.62
2017-07-11T06:45:13.083Z,25.83
2017-07-11T06:47:42.749Z,19.90
2017-07-11T06:50:11.625Z,20.12
2017-07-11T06:52:40.532Z,25.62
2017-07-11T06:55:09.406Z,21.75
2017-07-11T06:57:38.291Z,39.55
2017-07-11T07:00:07.199Z,23.83
2017-07-11T07:02:36.131Z,27.65
2017-07-11T07:05:05.040Z,28.10
2017-07-11T07:07:34.731Z,26.87
2017-07-11T07:10:03.639Z,28.60
2017-07-11T07:12:33.314Z,29.77
2017-07-11T07:15:02.214Z,29.70
2017-07-11T07:17:31.134Z,29.05
2017-07-11T07:20:00.824Z,27.87
2017-07-11T07:22:29.693Z,29.73
2017-07-11T07:24:58.601Z,27.50
2017-07-11T07:27:27.508Z,32.45
2017-07-11T07:29:56.415Z,28.77
2017-07-11T07:32:26.115Z,37.80
2017-07-11T07:34:55.785Z,38.20
2017-07-11T07:37:24.696Z,36.28
2017-07-11T07:39:53.592Z,32.85
2017-07-11T07:42:22.455Z,35.10
2017-07-11T07:44:51.366Z,34.95
2017-07-11T07:47:20.278Z,35.63
2017-07-11T07:49:49.172Z,28.85
2017-07-11T07:52:18.062Z,30.88
2017-07-11T07:54:46.976Z,33.28
2017-07-11T07:57:16.646Z,28.33
2017-07-11T07:59:45.543Z,27.15
2017-07-11T08:02:14.453Z,33.58
2017-07-11T08:04:43.311Z,33.17
2017-07-11T08:07:12.227Z,32.28
2017-07-11T08:09:41.134Z,34.53
2017-07-11T08:12:10.024Z,32.78
2017-07-11T08:14:39.686Z,32.60
2017-07-11T08:17:08.585Z,30.58
2017-07-11T08:19:37.494Z,29.52
2017-07-11T08:22:06.410Z,28.05
2017-07-11T08:24:36.094Z,25.27
2017-07-11T08:27:05.007Z,32.78
2017-07-11T08:29:34.681Z,29.90
2017-07-11T08:32:03.612Z,30.25
2017-07-11T08:34:33.292Z,32.55
2017-07-11T08:37:02.211Z,39.53
2017-07-11T08:39:31.118Z,37.45
2017-07-11T08:42:00.034Z,39.67
2017-07-11T08:44:28.937Z,35.38
2017-07-11T08:46:57.852Z,39.22
2017-07-11T08:49:26.778Z,35.22
2017-07-11T08:51:56.459Z,40.80
2017-07-11T08:54:25.358Z,39.05
2017-07-11T08:56:54.286Z,37.05
2017-07-11T08:59:23.967Z,33.25
2017-07-11T09:01:52.866Z,33.92
2017-07-11T09:04:21.778Z,34.53
2017-07-11T09:06:50.688Z,30.73
2017-07-11T09:09:19.596Z,28.12
2017-07-11T09:11:48.517Z,30.25
2017-07-11T09:14:17.427Z,29.83
2017-07-11T09:16:47.337Z,28.75
2017-07-11T09:19:16.285Z,30.83
2017-07-11T09:21:45.192Z,30.23
2017-07-11T09:24:14.112Z,25.98
2017-07-11T09:26:43.030Z,29.63
2017-07-11T09:29:12.715Z,27.70
2017-07-11T09:31:41.585Z,24.55
2017-07-11T09:34:10.516Z,25.60
2017-07-11T09:36:39.380Z,30.73
2017-07-11T09:39:08.256Z,27.20
2017-07-11T09:41:37.155Z,27.70
2017-07-11T09:44:06.032Z,29.23
2017-07-11T09:46:34.967Z,30.02
2017-07-11T09:49:03.868Z,30.42
2017-07-11T09:51:32.767Z,28.90
2017-07-11T09:54:02.445Z,29.83
2017-07-11T09:56:31.341Z,31.85
2017-07-11T09:59:00.242Z,34.85
2017-07-11T10:01:29.141Z,28.65
2017-07-11T10:03:58.807Z,31.05
2017-07-11T10:06:27.722Z,30.50
2017-07-11T10:08:56.625Z,27.45
2017-07-11T10:11:25.549Z,30.20
2017-07-11T10:13:54.173Z,30.48
2017-07-11T10:16:23.095Z,29.12
2017-07-11T10:18:52.023Z,24.80
2017-07-11T10:21:20.934Z,24.80
2017-07-11T10:23:49.838Z,23.98
2017-07-11T10:26:18.750Z,24.25
2017-07-11T10:28:47.671Z,23.80
2017-07-11T10:31:16.579Z,23.92
2017-07-11T10:33:45.489Z,24.87
2017-07-11T10:36:14.390Z,22.17
2017-07-11T10:38:43.262Z,22.80
2017-07-11T10:41:12.168Z,25.65
2017-07-11T10:43:41.074Z,24.10
2017-07-11T10:46:09.989Z,24.80
2017-07-11T10:48:38.895Z,21.17
2017-07-11T10:51:07.970Z,22.15
2017-07-11T10:53:36.876Z,20.92
2017-07-11T10:56:05.771Z,21.77
2017-07-11T10:58:34.679Z,21.52
2017-07-11T11:01:03.580Z,16.65
2017-07-11T11:03:33.257Z,18.90
2017-07-11T11:06:02.175Z,14.15
2017-07-11T11:08:31.102Z,15.63
2017-07-11T11:11:00.019Z,16.65
2017-07-11T11:13:28.932Z,17.02
2017-07-11T11:15:57.847Z,14.73
2017-07-11T11:18:27.175Z,14.60
2017-07-11T11:20:56.094Z,15.63
2017-07-11T11:23:25.011Z,13.77
2017-07-11T11:25:53.935Z,21.20
2017-07-11T11:28:22.836Z,14.02
2017-07-11T11:30:51.737Z,13.07
2017-07-11T11:33:20.646Z,11.48
2017-07-11T11:35:49.558Z,13.65
2017-07-11T11:38:18.471Z,13.25
2017-07-11T11:40:48.148Z,12.98
2017-07-11T11:43:17.061Z,16.98
2017-07-11T11:45:45.967Z,13.50
2017-07-11T11:48:14.875Z,15.80
2017-07-11T11:50:43.808Z,15.88
2017-07-11T11:53:12.743Z,15.77
2017-07-11T11:55:42.426Z,15.73
2017-07-11T11:58:11.350Z,12.48
2017-07-11T12:00:40.308Z,13.38
2017-07-11T12:03:09.217Z,12.30
2017-07-11T12:05:38.134Z,13.02
2017-07-11T12:08:07.816Z,14.02
2017-07-11T12:10:36.740Z,14.40
2017-07-11T12:13:05.662Z,20.60
2017-07-11T12:15:34.537Z,10.30
2017-07-11T12:18:03.440Z,7.47
2017-07-11T12:20:32.342Z,6.30
2017-07-11T12:23:01.231Z,5.47
2017-07-11T12:25:30.127Z,5.40
2017-07-11T12:27:59.015Z,10.95
2017-07-11T12:30:27.926Z,13.40
2017-07-11T12:32:56.838Z,5.93
2017-07-11T12:35:25.725Z,9.15
2017-07-11T12:37:54.624Z,10.55
2017-07-11T12:40:23.550Z,5.37
2017-07-11T12:42:53.212Z,6.20
2017-07-11T12:45:22.114Z,6.40
2017-07-11T12:47:51.008Z,6.20
2017-07-11T12:50:19.898Z,7.97
2017-07-11T12:52:48.785Z,9.02
2017-07-11T12:55:17.668Z,7.28
2017-07-11T12:57:46.597Z,6.95
2017-07-11T13:00:15.475Z,6.93
2017-07-11T13:02:44.394Z,6.20
2017-07-11T13:05:13.294Z,5.47
2017-07-11T13:07:42.207Z,5.45
2017-07-11T13:10:11.080Z,7.03
2017-07-11T13:12:39.731Z,6.73
2017-07-11T13:15:08.330Z,7.23
2017-07-11T13:17:36.778Z,5.50
2017-07-11T13:20:05.683Z,7.30
2017-07-11T13:22:34.579Z,5.05
2017-07-11T13:25:03.203Z,4.83
2017-07-11T13:27:31.842Z,5.40
2017-07-11T13:30:00.736Z,5.78
2017-07-11T13:32:29.945Z,8.03
2017-07-11T13:34:58.861Z,5.68
2017-07-11T13:37:27.504Z,5.33
2017-07-11T13:39:56.396Z,5.22
2017-07-11T13:42:25.702Z,5.27
2017-07-11T13:44:54.611Z,9.57
2017-07-11T13:47:23.515Z,8.95
2017-07-11T13:49:52.391Z,8.00
2017-07-11T13:52:21.294Z,6.97
2017-07-11T13:54:50.954Z,4.35
2017-07-11T13:57:23.463Z,4.37
2017-07-11T13:59:52.361Z,5.55
2017-07-11T14:02:21.282Z,10.13
2017-07-11T14:04:50.208Z,11.50
2017-07-11T14:07:19.126Z,13.05
2017-07-11T14:09:48.023Z,8.95
2017-07-11T14:12:16.941Z,15.95
2017-07-11T14:14:46.663Z,10.23
2017-07-11T14:17:15.780Z,10.80
2017-07-11T14:19:44.669Z,10.68
2017-07-11T14:22:13.564Z,6.07
2017-07-11T14:24:42.454Z,6.28
2017-07-11T14:27:11.350Z,4.68
2017-07-11T14:29:40.238Z,6.60
2017-07-11T14:32:08.944Z,4.18
2017-07-11T14:34:37.839Z,7.50
2017-07-11T14:37:06.746Z,6.72
2017-07-11T14:39:35.629Z,5.25
2017-07-11T14:42:04.528Z,10.60
2017-07-11T14:44:33.399Z,5.57
2017-07-11T14:47:02.277Z,7.68
2017-07-11T14:49:31.161Z,6.20
2017-07-11T14:52:00.064Z,5.93
2017-07-11T14:54:28.959Z,5.68
2017-07-11T14:56:57.862Z,5.85
2017-07-11T14:59:26.763Z,7.72
2017-07-11T15:01:55.658Z,9.75
2017-07-11T15:04:24.566Z,8.48
2017-07-11T15:06:53.458Z,6.28
2017-07-11T15:09:23.215Z,7.53
2017-07-11T15:11:52.093Z,6.78
2017-07-11T15:14:20.991Z,10.25
2017-07-11T15:16:49.873Z,7.50
2017-07-11T15:19:19.516Z,7.85
2017-07-11T15:21:48.400Z,7.40
2017-07-11T15:24:17.296Z,7.37
2017-07-11T15:26:46.197Z,8.30
2017-07-11T15:29:15.078Z,5.03
2017-07-11T15:31:43.959Z,6.28
2017-07-11T15:34:12.850Z,5.55
2017-07-11T15:36:41.746Z,6.70
2017-07-11T15:39:10.622Z,7.62
2017-07-11T15:41:40.275Z,5.35
2017-07-11T15:44:09.180Z,5.30
2017-07-11T15:46:38.070Z,5.37
2017-07-11T15:49:06.968Z,7.45
2017-07-11T15:51:36.016Z,15.32
2017-07-11T15:54:04.914Z,6.82
2017-07-11T15:56:33.793Z,5.75
2017-07-11T15:59:02.673Z,6.20
2017-07-11T16:01:31.583Z,5.62
2017-07-11T16:04:00.472Z,6.72
2017-07-11T16:06:29.353Z,5.28
2017-07-11T16:08:59.203Z,5.60
2017-07-11T16:11:28.077Z,4.93
2017-07-11T16:13:56.954Z,6.43
2017-07-11T16:16:25.838Z,5.87
2017-07-11T16:18:55.488Z,7.57
2017-07-11T16:21:25.306Z,5.62
2017-07-11T16:23:54.191Z,7.00
2017-07-11T16:26:23.748Z,5.80
2017-07-11T16:28:53.409Z,10.05
2017-07-11T16:31:22.292Z,5.45
2017-07-11T16:33:51.183Z,5.90
2017-07-11T16:36:20.066Z,5.40
2017-07-11T16:38:48.926Z,4.53
2017-07-11T16:41:17.808Z,4.70
2017-07-11T16:43:46.734Z,4.22
2017-07-11T16:46:17.084Z,6.30
2017-07-11T16:48:45.969Z,8.57
2017-07-11T16:51:14.836Z,4.70
2017-07-11T16:53:43.729Z,5.40
2017-07-11T16:56:12.593Z,5.87
2017-07-11T16:58:42.226Z,4.55
2017-07-11T17:01:11.109Z,4.20
2017-07-11T17:03:39.992Z,5.30
2017-07-11T17:06:09.651Z,4.18
2017-07-11T17:08:38.495Z,4.90
2017-07-11T17:11:07.393Z,3.80
2017-07-11T17:13:36.291Z,3.60
2017-07-11T17:16:05.188Z,4.03
2017-07-11T17:18:34.189Z,4.32
2017-07-11T17:21:03.087Z,3.92
2017-07-11T17:23:31.969Z,4.25
2017-07-11T17:26:00.870Z,3.62
2017-07-11T17:28:29.750Z,4.15
2017-07-11T17:30:58.648Z,2.78
2017-07-11T17:33:27.538Z,3.22
2017-07-11T17:35:56.421Z,2.78
2017-07-11T17:38:25.321Z,4.00
2017-07-11T17:40:54.209Z,5.85
2017-07-11T17:43:23.108Z,2.95
2017-07-11T17:45:52.010Z,4.45
2017-07-11T17:48:20.907Z,5.72
2017-07-11T17:50:50.279Z,4.45
2017-07-11T17:53:19.184Z,3.78
2017-07-11T17:55:48.087Z,11.10
2017-07-11T17:58:16.980Z,3.22
2017-07-11T18:00:45.858Z,2.80
2017-07-11T18:03:14.738Z,2.80
2017-07-11T18:05:43.630Z,2.58
2017-07-11T18:08:12.511Z,4.15
2017-07-11T18:10:41.422Z,4.53
2017-07-11T18:13:10.326Z,4.22
2017-07-11T18:15:39.222Z,3.85
2017-07-11T18:18:08.107Z,3.75
2017-07-11T18:20:36.981Z,12.15
2017-07-11T18:23:05.879Z,4.00
2017-07-11T18:25:34.774Z,3.87
2017-07-11T18:28:03.659Z,3.45
2017-07-11T18:30:33.381Z,4.55
2017-07-11T18:33:02.458Z,4.65
2017-07-11T18:35:31.821Z,3.53
2017-07-11T18:38:00.710Z,6.85
2017-07-11T18:40:29.592Z,4.30
2017-07-11T18:42:58.481Z,5.40
2017-07-11T18:45:27.348Z,6.47
2017-07-11T18:47:56.234Z,6.00
2017-07-11T18:50:25.132Z,5.43
2017-07-11T18:52:54.029Z,6.78
2017-07-11T18:55:22.925Z,3.42
2017-07-11T18:57:51.817Z,4.65
2017-07-11T19:00:20.711Z,3.30
2017-07-11T19:02:49.600Z,6.40
2017-07-11T19:05:18.494Z,8.45
2017-07-11T19:07:47.373Z,5.20
2017-07-11T19:10:16.269Z,4.22
2017-07-11T19:12:45.157Z,6.70
2017-07-11T19:15:14.037Z,7.50
2017-07-11T19:17:42.958Z,4.25
2017-07-11T19:20:11.850Z,6.72
2017-07-11T19:22:40.748Z,4.47
2017-07-11T19:25:09.647Z,5.65
2017-07-11T19:27:38.529Z,4.80
2017-07-11T19:30:07.428Z,10.40
2017-07-11T19:32:36.330Z,4.70
2017-07-11T19:35:05.259Z,6.65
2017-07-11T19:37:34.908Z,7.25
2017-07-11T19:40:03.789Z,5.72
2017-07-11T19:42:32.775Z,11.12
2017-07-11T19:45:01.681Z,6.93
2017-07-11T19:47:30.573Z,7.07
2017-07-11T19:49:59.465Z,10.73
2017-07-11T19:52:28.328Z,5.30
2017-07-11T19:54:57.225Z,6.97
2017-07-11T19:57:26.275Z,5.47
2017-07-11T19:59:55.158Z,5.15
2017-07-11T20:02:24.050Z,6.03
2017-07-11T20:04:52.932Z,6.20
2017-07-11T20:07:21.831Z,6.12
2017-07-11T20:09:50.738Z,15.43
2017-07-11T20:12:19.586Z,6.57
2017-07-11T20:14:48.474Z,6.15
2017-07-11T20:17:17.333Z,5.43
2017-07-11T20:19:46.991Z,8.18
2017-07-11T20:22:15.841Z,5.95
2017-07-11T20:24:45.499Z,8.57
2017-07-11T20:27:14.408Z,7.10
2017-07-11T20:29:44.162Z,6.72
2017-07-11T20:32:13.045Z,11.77
2017-07-11T20:34:42.703Z,6.47
2017-07-11T20:37:11.590Z,6.07
2017-07-11T20:39:41.153Z,8.07
2017-07-11T20:42:11.594Z,10.93
2017-07-11T20:44:40.473Z,10.38
2017-07-11T20:47:10.115Z,8.82
2017-07-11T20:49:39.005Z,5.87
2017-07-11T20:52:07.892Z,7.43
2017-07-11T20:54:36.774Z,9.80
2017-07-11T20:57:05.655Z,8.73
2017-07-11T20:59:34.528Z,8.55
2017-07-11T21:02:04.614Z,11.50
2017-07-11T21:04:33.525Z,12.35
2017-07-11T21:07:02.463Z,7.37
2017-07-11T21:09:31.340Z,7.75
2017-07-11T21:12:16.987Z,7.93
2017-07-11T21:14:45.882Z,6.85
2017-07-11T21:17:14.923Z,10.30
2017-07-11T21:19:44.065Z,8.20
2017-07-11T21:22:13.381Z,7.72
2017-07-11T21:24:42.276Z,10.68
2017-07-11T21:27:11.165Z,11.30
2017-07-11T21:29:40.050Z,9.40
2017-07-11T21:32:08.983Z,6.68
2017-07-11T21:34:37.880Z,9.38
2017-07-11T21:37:06.763Z,9.30
2017-07-11T21:39:35.659Z,8.13
2017-07-11T21:42:04.542Z,7.65
2017-07-11T21:44:33.397Z,12.20
2017-07-11T21:47:02.290Z,6.37
2017-07-11T21:49:31.183Z,8.50
2017-07-11T21:52:00.067Z,6.05
2017-07-11T21:54:28.952Z,10.10
2017-07-11T21:56:57.842Z,9.55
2017-07-11T21:59:26.737Z,6.55
2017-07-11T22:01:55.633Z,13.27
2017-07-11T22:04:24.518Z,10.95
2017-07-11T22:06:53.364Z,7.12
2017-07-11T22:09:22.222Z,7.30
2017-07-11T22:11:51.148Z,6.37
2017-07-11T22:14:20.637Z,5.45
2017-07-11T22:16:50.289Z,5.65
2017-07-11T22:19:19.161Z,6.43
2017-07-11T22:21:48.067Z,10.00
2017-07-11T22:24:16.944Z,6.32
2017-07-11T22:26:45.826Z,5.10
2017-07-11T22:29:14.708Z,5.57
2017-07-11T22:31:44.362Z,8.90
2017-07-11T22:34:13.246Z,9.48
2017-07-11T22:36:42.109Z,11.07
2017-07-11T22:39:10.998Z,4.78
2017-07-11T22:41:39.881Z,6.03
2017-07-11T22:44:09.545Z,6.78
2017-07-11T22:46:38.430Z,5.20
2017-07-11T22:49:07.308Z,7.70
2017-07-11T22:51:36.180Z,5.70
2017-07-11T22:54:05.056Z,8.02
2017-07-11T22:56:35.303Z,8.88
2017-07-11T22:59:04.192Z,5.82
2017-07-11T23:01:33.071Z,7.30
2017-07-11T23:04:02.696Z,5.45
2017-07-11T23:06:31.583Z,7.62
2017-07-11T23:09:00.460Z,6.75
2017-07-11T23:11:29.356Z,9.05
2017-07-11T23:13:58.240Z,5.72
2017-07-11T23:16:27.129Z,6.50
2017-07-11T23:18:56.741Z,9.90
2017-07-11T23:21:26.385Z,6.85
2017-07-11T23:23:55.260Z,5.93
2017-07-11T23:26:24.141Z,7.65
2017-07-11T23:28:53.029Z,7.20
2017-07-11T23:31:21.919Z,7.43
2017-07-11T23:33:51.579Z,7.87
2017-07-11T23:36:20.462Z,6.00
2017-07-11T23:38:49.350Z,6.78
2017-07-11T23:41:18.231Z,7.50
2017-07-11T23:43:47.115Z,6.60
2017-07-11T23:46:16.001Z,7.37
2017-07-11T23:48:44.845Z,8.25
2017-07-11T23:51:13.729Z,7.03
2017-07-11T23:53:42.613Z,11.80
2017-07-11T23:56:11.545Z,8.38
2017-07-11T23:58:40.654Z,8.70
